sensor_id;sensor_type;location;lat;lon;timestamp;pressure;altitude;pressure_sealevel;temperature;humidity
66430;BME280;53242;51.694;10.006;2022-12-24T00:00:10;98380.16;;;9.57;95.26
66430;BME280;53242;51.694;10.006;2022-12-24T00:02:33;98381.94;;;9.63;94.71
66430;BME280;53242;51.694;10.006;2022-12-24T00:04:55;98385.75;;;9.67;94.81
66430;BME280;53242;51.694;10.006;2022-12-24T00:07:18;98377.28;;;9.65;94.60
66430;BME280;53242;51.694;10.006;2022-12-24T00:09:40;98382.38;;;9.60;94.62
66430;BME280;53242;51.694;10.006;2022-12-24T00:12:03;98376.75;;;9.56;94.98
66430;BME280;53242;51.694;10.006;2022-12-24T00:14:26;98376.91;;;9.61;95.11
66430;BME280;53242;51.694;10.006;2022-12-24T00:16:48;98396.78;;;9.57;94.96
66430;BME280;53242;51.694;10.006;2022-12-24T00:19:10;98390.94;;;9.55;95.12
66430;BME280;53242;51.694;10.006;2022-12-24T00:21:33;98400.59;;;9.61;95.14
66430;BME280;53242;51.694;10.006;2022-12-24T00:23:56;98398.38;;;9.58;95.38
66430;BME280;53242;51.694;10.006;2022-12-24T00:26:18;98392.88;;;9.66;94.54
66430;BME280;53242;51.694;10.006;2022-12-24T00:28:41;98411.53;;;9.65;94.57
66430;BME280;53242;51.694;10.006;2022-12-24T00:31:09;98405.19;;;9.73;93.98
66430;BME280;53242;51.694;10.006;2022-12-24T00:33:32;98414.31;;;9.70;94.12
66430;BME280;53242;51.694;10.006;2022-12-24T00:35:54;98412.25;;;9.72;93.75
66430;BME280;53242;51.694;10.006;2022-12-24T00:38:16;98424.25;;;9.68;94.27
66430;BME280;53242;51.694;10.006;2022-12-24T00:40:39;98417.47;;;9.79;93.36
66430;BME280;53242;51.694;10.006;2022-12-24T00:43:01;98419.09;;;9.80;93.19
66430;BME280;53242;51.694;10.006;2022-12-24T00:45:24;98413.44;;;9.76;93.65
66430;BME280;53242;51.694;10.006;2022-12-24T00:47:48;98419.38;;;9.71;93.59
66430;BME280;53242;51.694;10.006;2022-12-24T00:50:11;98417.97;;;9.69;94.03
66430;BME280;53242;51.694;10.006;2022-12-24T00:52:33;98421.78;;;9.73;93.58
66430;BME280;53242;51.694;10.006;2022-12-24T00:54:56;98431.53;;;9.73;93.34
66430;BME280;53242;51.694;10.006;2022-12-24T00:57:18;98434.78;;;9.68;93.63
66430;BME280;53242;51.694;10.006;2022-12-24T00:59:41;98443.09;;;9.71;93.72
66430;BME280;53242;51.694;10.006;2022-12-24T01:02:03;98443.31;;;9.70;93.55
66430;BME280;53242;51.694;10.006;2022-12-24T01:04:25;98448.56;;;9.70;93.81
66430;BME280;53242;51.694;10.006;2022-12-24T01:07:06;98449.19;;;9.65;93.76
66430;BME280;53242;51.694;10.006;2022-12-24T01:09:29;98465.81;;;9.66;93.50
66430;BME280;53242;51.694;10.006;2022-12-24T01:11:51;98463.16;;;9.66;93.11
66430;BME280;53242;51.694;10.006;2022-12-24T01:14:13;98471.28;;;9.64;93.68
66430;BME280;53242;51.694;10.006;2022-12-24T01:16:36;98471.28;;;9.64;93.25
66430;BME280;53242;51.694;10.006;2022-12-24T01:18:58;98469.00;;;9.75;92.76
66430;BME280;53242;51.694;10.006;2022-12-24T01:21:21;98479.38;;;9.69;92.85
66430;BME280;53242;51.694;10.006;2022-12-24T01:23:43;98489.09;;;9.69;93.06
66430;BME280;53242;51.694;10.006;2022-12-24T01:26:06;98492.38;;;9.64;93.06
66430;BME280;53242;51.694;10.006;2022-12-24T01:28:28;98495.16;;;9.69;92.63
66430;BME280;53242;51.694;10.006;2022-12-24T01:30:51;98496.19;;;9.68;92.88
66430;BME280;53242;51.694;10.006;2022-12-24T01:33:13;98492.25;;;9.52;93.39
66430;BME280;53242;51.694;10.006;2022-12-24T01:35:42;98500.31;;;9.58;93.00
66430;BME280;53242;51.694;10.006;2022-12-24T01:38:05;98505.63;;;9.51;92.82
66430;BME280;53242;51.694;10.006;2022-12-24T01:40:27;98513.06;;;9.61;92.81
66430;BME280;53242;51.694;10.006;2022-12-24T01:43:19;98511.63;;;9.65;92.33
66430;BME280;53242;51.694;10.006;2022-12-24T01:45:46;98526.66;;;9.58;92.87
66430;BME280;53242;51.694;10.006;2022-12-24T01:48:13;98523.06;;;9.45;93.22
66430;BME280;53242;51.694;10.006;2022-12-24T01:50:36;98536.69;;;9.42;93.46
66430;BME280;53242;51.694;10.006;2022-12-24T01:52:59;98543.09;;;9.53;93.06
66430;BME280;53242;51.694;10.006;2022-12-24T01:55:21;98539.06;;;9.50;92.83
66430;BME280;53242;51.694;10.006;2022-12-24T01:57:55;98545.31;;;9.56;92.74
66430;BME280;53242;51.694;10.006;2022-12-24T02:00:19;98541.06;;;9.55;92.69
66430;BME280;53242;51.694;10.006;2022-12-24T02:02:46;98556.47;;;9.51;92.93
66430;BME280;53242;51.694;10.006;2022-12-24T02:05:26;98555.47;;;9.52;92.77
66430;BME280;53242;51.694;10.006;2022-12-24T02:07:51;98556.69;;;9.50;93.39
66430;BME280;53242;51.694;10.006;2022-12-24T02:10:14;98565.03;;;9.47;93.48
66430;BME280;53242;51.694;10.006;2022-12-24T02:12:37;98565.56;;;9.55;92.90
66430;BME280;53242;51.694;10.006;2022-12-24T02:15:01;98559.75;;;9.47;92.88
66430;BME280;53242;51.694;10.006;2022-12-24T02:17:39;98570.69;;;9.44;93.30
66430;BME280;53242;51.694;10.006;2022-12-24T02:20:42;98576.78;;;9.44;93.29
66430;BME280;53242;51.694;10.006;2022-12-24T02:31:44;98588.13;;;9.45;92.31
66430;BME280;53242;51.694;10.006;2022-12-24T02:39:42;98593.78;;;9.48;91.08
66430;BME280;53242;51.694;10.006;2022-12-24T02:42:07;98604.91;;;9.50;90.96
66430;BME280;53242;51.694;10.006;2022-12-24T02:44:40;98596.41;;;9.48;90.91
66430;BME280;53242;51.694;10.006;2022-12-24T02:47:05;98620.09;;;9.55;89.76
66430;BME280;53242;51.694;10.006;2022-12-24T02:49:28;98619.88;;;9.57;89.31
66430;BME280;53242;51.694;10.006;2022-12-24T02:51:50;98618.88;;;9.58;88.92
66430;BME280;53242;51.694;10.006;2022-12-24T02:54:13;98635.50;;;9.51;89.39
66430;BME280;53242;51.694;10.006;2022-12-24T02:59:27;98631.47;;;9.42;90.30
66430;BME280;53242;51.694;10.006;2022-12-24T03:02:38;98620.72;;;9.44;89.90
66430;BME280;53242;51.694;10.006;2022-12-24T03:05:11;98626.66;;;9.32;90.56
66430;BME280;53242;51.694;10.006;2022-12-24T03:07:50;98642.66;;;9.31;90.90
66430;BME280;53242;51.694;10.006;2022-12-24T03:12:55;98646.47;;;9.35;90.67
66430;BME280;53242;51.694;10.006;2022-12-24T03:15:21;98646.69;;;9.33;90.80
66430;BME280;53242;51.694;10.006;2022-12-24T03:17:45;98659.66;;;9.35;90.74
66430;BME280;53242;51.694;10.006;2022-12-24T03:20:10;98658.06;;;9.27;91.03
66430;BME280;53242;51.694;10.006;2022-12-24T03:22:34;98657.88;;;9.29;90.75
66430;BME280;53242;51.694;10.006;2022-12-24T03:24:56;98667.38;;;9.30;91.10
66430;BME280;53242;51.694;10.006;2022-12-24T03:27:19;98681.19;;;9.18;92.08
66430;BME280;53242;51.694;10.006;2022-12-24T03:29:41;98686.44;;;9.25;91.75
66430;BME280;53242;51.694;10.006;2022-12-24T03:32:04;98695.75;;;9.21;92.00
66430;BME280;53242;51.694;10.006;2022-12-24T03:34:26;98697.78;;;9.19;92.20
66430;BME280;53242;51.694;10.006;2022-12-24T03:36:49;98703.25;;;9.17;92.40
66430;BME280;53242;51.694;10.006;2022-12-24T03:39:12;98709.72;;;9.15;92.68
66430;BME280;53242;51.694;10.006;2022-12-24T03:41:36;98714.59;;;9.11;92.31
66430;BME280;53242;51.694;10.006;2022-12-24T03:43:59;98715.38;;;9.12;91.24
66430;BME280;53242;51.694;10.006;2022-12-24T03:46:21;98722.25;;;9.19;90.66
66430;BME280;53242;51.694;10.006;2022-12-24T03:48:43;98709.72;;;9.21;90.24
66430;BME280;53242;51.694;10.006;2022-12-24T03:51:16;98706.06;;;9.23;90.07
66430;BME280;53242;51.694;10.006;2022-12-24T03:53:38;98700.41;;;9.19;89.72
66430;BME280;53242;51.694;10.006;2022-12-24T03:56:01;98708.72;;;9.16;88.12
66430;BME280;53242;51.694;10.006;2022-12-24T03:58:23;98718.81;;;9.26;87.70
66430;BME280;53242;51.694;10.006;2022-12-24T04:00:46;98730.56;;;9.23;87.83
66430;BME280;53242;51.694;10.006;2022-12-24T04:03:08;98730.16;;;9.19;86.76
66430;BME280;53242;51.694;10.006;2022-12-24T04:05:30;98733.63;;;9.20;87.03
66430;BME280;53242;51.694;10.006;2022-12-24T04:07:53;98737.88;;;9.21;86.25
66430;BME280;53242;51.694;10.006;2022-12-24T04:10:15;98737.06;;;9.20;86.63
66430;BME280;53242;51.694;10.006;2022-12-24T04:12:38;98740.31;;;9.23;85.72
66430;BME280;53242;51.694;10.006;2022-12-24T04:15:00;98725.50;;;9.28;85.05
66430;BME280;53242;51.694;10.006;2022-12-24T04:17:23;98743.94;;;9.21;85.83
66430;BME280;53242;51.694;10.006;2022-12-24T04:19:45;98740.69;;;9.19;85.60
66430;BME280;53242;51.694;10.006;2022-12-24T04:22:07;98747.78;;;9.19;85.26
66430;BME280;53242;51.694;10.006;2022-12-24T04:24:30;98747.78;;;9.26;85.27
66430;BME280;53242;51.694;10.006;2022-12-24T04:26:52;98757.09;;;9.21;85.49
66430;BME280;53242;51.694;10.006;2022-12-24T04:29:15;98748.59;;;9.19;85.49
66430;BME280;53242;51.694;10.006;2022-12-24T04:31:37;98755.69;;;9.26;84.16
66430;BME280;53242;51.694;10.006;2022-12-24T04:34:00;98758.53;;;9.17;84.63
66430;BME280;53242;51.694;10.006;2022-12-24T04:36:22;98766.41;;;9.24;84.37
66430;BME280;53242;51.694;10.006;2022-12-24T04:38:46;98771.50;;;9.19;84.68
66430;BME280;53242;51.694;10.006;2022-12-24T04:41:11;98776.97;;;9.24;84.08
66430;BME280;53242;51.694;10.006;2022-12-24T04:43:34;98771.28;;;9.27;83.86
66430;BME280;53242;51.694;10.006;2022-12-24T04:46:11;98771.06;;;9.22;84.04
66430;BME280;53242;51.694;10.006;2022-12-24T04:48:36;98773.31;;;9.18;84.22
66430;BME280;53242;51.694;10.006;2022-12-24T04:51:03;98777.16;;;9.23;83.81
66430;BME280;53242;51.694;10.006;2022-12-24T04:53:26;98784.44;;;9.20;84.10
66430;BME280;53242;51.694;10.006;2022-12-24T04:55:49;98786.28;;;9.20;83.62
66430;BME280;53242;51.694;10.006;2022-12-24T04:58:12;98786.06;;;9.15;83.95
66430;BME280;53242;51.694;10.006;2022-12-24T05:00:34;98789.13;;;9.18;83.86
66430;BME280;53242;51.694;10.006;2022-12-24T05:02:56;98785.88;;;9.16;83.38
66430;BME280;53242;51.694;10.006;2022-12-24T05:05:19;98798.41;;;9.14;83.28
66430;BME280;53242;51.694;10.006;2022-12-24T05:07:42;98806.50;;;9.19;83.49
66430;BME280;53242;51.694;10.006;2022-12-24T05:10:05;98804.09;;;9.11;83.20
66430;BME280;53242;51.694;10.006;2022-12-24T05:12:28;98803.69;;;9.21;83.00
66430;BME280;53242;51.694;10.006;2022-12-24T05:14:50;98816.25;;;9.19;82.97
66430;BME280;53242;51.694;10.006;2022-12-24T05:17:13;98813.19;;;9.15;82.80
66430;BME280;53242;51.694;10.006;2022-12-24T05:19:35;98815.63;;;9.10;83.25
66430;BME280;53242;51.694;10.006;2022-12-24T05:21:58;98820.09;;;9.03;83.19
66430;BME280;53242;51.694;10.006;2022-12-24T05:24:38;98824.31;;;9.04;82.91
66430;BME280;53242;51.694;10.006;2022-12-24T05:27:19;98829.19;;;9.14;82.39
66430;BME280;53242;51.694;10.006;2022-12-24T05:29:42;98834.47;;;9.14;82.57
66430;BME280;53242;51.694;10.006;2022-12-24T05:32:04;98842.56;;;9.12;82.26
66430;BME280;53242;51.694;10.006;2022-12-24T05:34:27;98850.88;;;9.16;82.54
66430;BME280;53242;51.694;10.006;2022-12-24T05:36:49;98849.44;;;9.07;82.58
66430;BME280;53242;51.694;10.006;2022-12-24T05:39:15;98843.00;;;9.16;81.83
66430;BME280;53242;51.694;10.006;2022-12-24T05:41:38;98857.75;;;9.10;82.57
66430;BME280;53242;51.694;10.006;2022-12-24T05:44:00;98860.78;;;9.00;82.01
66430;BME280;53242;51.694;10.006;2022-12-24T05:46:24;98860.59;;;9.09;82.13
66430;BME280;53242;51.694;10.006;2022-12-24T05:48:47;98856.53;;;9.06;81.45
66430;BME280;53242;51.694;10.006;2022-12-24T05:51:11;98864.22;;;9.01;81.86
66430;BME280;53242;51.694;10.006;2022-12-24T05:53:35;98864.63;;;9.04;81.57
66430;BME280;53242;51.694;10.006;2022-12-24T05:56:08;98859.59;;;9.10;81.61
66430;BME280;53242;51.694;10.006;2022-12-24T05:58:31;98859.97;;;9.00;81.94
66430;BME280;53242;51.694;10.006;2022-12-24T06:00:54;98862.38;;;9.01;81.86
66430;BME280;53242;51.694;10.006;2022-12-24T06:03:16;98861.16;;;9.04;81.64
66430;BME280;53242;51.694;10.006;2022-12-24T06:05:38;98869.69;;;9.06;81.22
66430;BME280;53242;51.694;10.006;2022-12-24T06:08:02;98872.53;;;8.98;81.96
66430;BME280;53242;51.694;10.006;2022-12-24T06:10:24;98875.31;;;8.89;81.61
66430;BME280;53242;51.694;10.006;2022-12-24T06:12:47;98881.41;;;8.97;81.35
66430;BME280;53242;51.694;10.006;2022-12-24T06:15:10;98889.31;;;8.97;81.67
66430;BME280;53242;51.694;10.006;2022-12-24T06:17:32;98874.53;;;8.89;81.51
66430;BME280;53242;51.694;10.006;2022-12-24T06:19:55;98876.94;;;8.84;81.85
66430;BME280;53242;51.694;10.006;2022-12-24T06:22:17;98887.25;;;8.79;81.24
66430;BME280;53242;51.694;10.006;2022-12-24T06:24:39;98885.41;;;8.79;80.87
66430;BME280;53242;51.694;10.006;2022-12-24T06:27:02;98888.03;;;8.79;81.40
66430;BME280;53242;51.694;10.006;2022-12-24T06:29:24;98883.78;;;8.78;81.04
66430;BME280;53242;51.694;10.006;2022-12-24T06:31:47;98882.19;;;8.77;80.89
66430;BME280;53242;51.694;10.006;2022-12-24T06:34:09;98886.81;;;8.75;81.62
66430;BME280;53242;51.694;10.006;2022-12-24T06:36:31;98892.09;;;8.82;81.48
66430;BME280;53242;51.694;10.006;2022-12-24T06:38:54;98898.38;;;8.81;81.12
66430;BME280;53242;51.694;10.006;2022-12-24T06:41:17;98900.19;;;8.80;80.83
66430;BME280;53242;51.694;10.006;2022-12-24T06:43:43;98894.13;;;8.80;81.02
66430;BME280;53242;51.694;10.006;2022-12-24T06:46:06;98901.41;;;8.84;80.79
66430;BME280;53242;51.694;10.006;2022-12-24T06:48:29;98906.31;;;8.94;80.57
66430;BME280;53242;51.694;10.006;2022-12-24T06:50:52;98910.97;;;8.92;80.88
66430;BME280;53242;51.694;10.006;2022-12-24T06:53:14;98911.78;;;8.93;80.54
66430;BME280;53242;51.694;10.006;2022-12-24T06:55:37;98917.84;;;8.86;80.91
66430;BME280;53242;51.694;10.006;2022-12-24T06:57:59;98927.56;;;8.93;80.75
66430;BME280;53242;51.694;10.006;2022-12-24T07:00:21;98927.50;;;8.79;81.84
66430;BME280;53242;51.694;10.006;2022-12-24T07:02:44;98932.22;;;8.91;80.89
66430;BME280;53242;51.694;10.006;2022-12-24T07:05:07;98933.41;;;8.88;81.17
66430;BME280;53242;51.694;10.006;2022-12-24T07:07:31;98937.69;;;8.96;80.79
66430;BME280;53242;51.694;10.006;2022-12-24T07:09:54;98933.22;;;8.96;80.74
66430;BME280;53242;51.694;10.006;2022-12-24T07:12:17;98937.69;;;8.96;80.67
66430;BME280;53242;51.694;10.006;2022-12-24T07:14:39;98944.38;;;8.98;81.09
66430;BME280;53242;51.694;10.006;2022-12-24T07:17:02;98945.59;;;8.96;81.00
66430;BME280;53242;51.694;10.006;2022-12-24T07:19:24;98943.75;;;8.96;80.90
66430;BME280;53242;51.694;10.006;2022-12-24T07:21:46;98946.59;;;9.01;80.87
66430;BME280;53242;51.694;10.006;2022-12-24T07:24:11;98948.03;;;9.04;80.80
66430;BME280;53242;51.694;10.006;2022-12-24T07:26:33;98954.72;;;9.00;80.84
66430;BME280;53242;51.694;10.006;2022-12-24T07:28:55;98970.13;;;9.03;80.68
66430;BME280;53242;51.694;10.006;2022-12-24T07:31:18;98962.38;;;8.95;80.92
66430;BME280;53242;51.694;10.006;2022-12-24T07:33:41;98955.72;;;8.99;80.52
66430;BME280;53242;51.694;10.006;2022-12-24T07:36:05;98968.69;;;9.00;80.62
66430;BME280;53242;51.694;10.006;2022-12-24T07:38:29;98970.06;;;8.89;81.13
66430;BME280;53242;51.694;10.006;2022-12-24T07:40:52;98983.38;;;8.81;81.53
66430;BME280;53242;51.694;10.006;2022-12-24T07:43:14;98995.88;;;8.66;81.90
66430;BME280;53242;51.694;10.006;2022-12-24T07:45:38;98993.59;;;8.63;82.44
66430;BME280;53242;51.694;10.006;2022-12-24T07:48:00;98990.56;;;8.59;83.00
66430;BME280;53242;51.694;10.006;2022-12-24T07:50:22;99000.84;;;8.54;83.23
66430;BME280;53242;51.694;10.006;2022-12-24T07:52:45;98999.34;;;8.45;84.03
66430;BME280;53242;51.694;10.006;2022-12-24T07:55:07;98994.53;;;8.48;83.71
66430;BME280;53242;51.694;10.006;2022-12-24T07:57:30;99002.63;;;8.47;83.73
66430;BME280;53242;51.694;10.006;2022-12-24T07:59:52;99006.06;;;8.47;83.48
66430;BME280;53242;51.694;10.006;2022-12-24T08:02:15;99013.56;;;8.50;84.00
66430;BME280;53242;51.694;10.006;2022-12-24T08:04:37;99008.91;;;8.52;83.98
66430;BME280;53242;51.694;10.006;2022-12-24T08:06:59;99001.88;;;8.60;83.86
66430;BME280;53242;51.694;10.006;2022-12-24T08:09:22;99000.69;;;8.62;84.43
66430;BME280;53242;51.694;10.006;2022-12-24T08:11:44;99005.72;;;8.57;84.11
66430;BME280;53242;51.694;10.006;2022-12-24T08:14:07;99009.16;;;8.58;84.47
66430;BME280;53242;51.694;10.006;2022-12-24T08:16:29;99015.00;;;8.53;84.65
66430;BME280;53242;51.694;10.006;2022-12-24T08:18:51;99021.75;;;8.40;85.46
66430;BME280;53242;51.694;10.006;2022-12-24T08:21:14;99015.56;;;8.48;85.53
66430;BME280;53242;51.694;10.006;2022-12-24T08:23:37;99026.94;;;8.49;85.91
66430;BME280;53242;51.694;10.006;2022-12-24T08:25:59;99022.06;;;8.52;85.48
66430;BME280;53242;51.694;10.006;2022-12-24T08:28:22;99021.75;;;8.62;85.38
66430;BME280;53242;51.694;10.006;2022-12-24T08:30:46;99018.47;;;8.60;85.37
66430;BME280;53242;51.694;10.006;2022-12-24T08:33:09;99025.56;;;8.60;85.36
66430;BME280;53242;51.694;10.006;2022-12-24T08:35:32;99027.81;;;8.63;85.11
66430;BME280;53242;51.694;10.006;2022-12-24T08:37:54;99032.81;;;8.58;85.76
66430;BME280;53242;51.694;10.006;2022-12-24T08:40:17;99031.63;;;8.60;85.67
66430;BME280;53242;51.694;10.006;2022-12-24T08:42:39;99032.69;;;8.66;85.63
66430;BME280;53242;51.694;10.006;2022-12-24T08:45:02;99037.13;;;8.65;85.13
66430;BME280;53242;51.694;10.006;2022-12-24T08:47:24;99038.56;;;8.68;84.85
66430;BME280;53242;51.694;10.006;2022-12-24T08:49:47;99033.94;;;8.70;84.81
66430;BME280;53242;51.694;10.006;2022-12-24T08:52:10;99044.69;;;8.75;84.07
66430;BME280;53242;51.694;10.006;2022-12-24T08:54:32;99047.06;;;8.70;84.41
66430;BME280;53242;51.694;10.006;2022-12-24T08:56:54;99049.19;;;8.81;84.32
66430;BME280;53242;51.694;10.006;2022-12-24T08:59:17;99057.03;;;8.75;84.84
66430;BME280;53242;51.694;10.006;2022-12-24T09:01:39;99058.63;;;8.76;85.46
66430;BME280;53242;51.694;10.006;2022-12-24T09:04:02;99054.78;;;8.71;86.22
66430;BME280;53242;51.694;10.006;2022-12-24T09:06:24;99061.28;;;8.76;86.45
66430;BME280;53242;51.694;10.006;2022-12-24T09:08:47;99056.25;;;8.81;86.48
66430;BME280;53242;51.694;10.006;2022-12-24T09:11:12;99059.16;;;8.93;85.94
66430;BME280;53242;51.694;10.006;2022-12-24T09:13:35;99071.13;;;8.95;86.18
66430;BME280;53242;51.694;10.006;2022-12-24T09:15:57;99061.59;;;8.94;86.39
66430;BME280;53242;51.694;10.006;2022-12-24T09:18:20;99069.25;;;8.89;87.12
66430;BME280;53242;51.694;10.006;2022-12-24T09:20:42;99079.59;;;8.91;87.10
66430;BME280;53242;51.694;10.006;2022-12-24T09:23:05;99090.69;;;8.86;87.38
66430;BME280;53242;51.694;10.006;2022-12-24T09:25:27;99094.50;;;8.83;87.64
66430;BME280;53242;51.694;10.006;2022-12-24T09:27:49;99102.88;;;8.94;86.99
66430;BME280;53242;51.694;10.006;2022-12-24T09:30:12;99095.19;;;8.92;87.34
66430;BME280;53242;51.694;10.006;2022-12-24T09:32:35;99099.69;;;8.98;87.14
66430;BME280;53242;51.694;10.006;2022-12-24T09:34:57;99098.03;;;8.97;86.91
66430;BME280;53242;51.694;10.006;2022-12-24T09:37:19;99105.81;;;9.05;86.95
66430;BME280;53242;51.694;10.006;2022-12-24T09:39:42;99107.63;;;9.12;86.41
66430;BME280;53242;51.694;10.006;2022-12-24T09:42:23;99116.19;;;9.20;86.23
66430;BME280;53242;51.694;10.006;2022-12-24T09:45:15;99113.94;;;9.11;86.78
66430;BME280;53242;51.694;10.006;2022-12-24T09:47:51;99122.44;;;9.13;86.84
66430;BME280;53242;51.694;10.006;2022-12-24T09:53:17;99128.78;;;9.25;86.82
66430;BME280;53242;51.694;10.006;2022-12-24T09:55:50;99130.78;;;9.23;86.59
66430;BME280;53242;51.694;10.006;2022-12-24T09:58:24;99119.69;;;9.28;86.63
66430;BME280;53242;51.694;10.006;2022-12-24T10:00:48;99130.22;;;9.28;86.43
66430;BME280;53242;51.694;10.006;2022-12-24T10:03:13;99126.38;;;9.30;86.40
66430;BME280;53242;51.694;10.006;2022-12-24T10:06:11;99124.53;;;9.31;86.33
66430;BME280;53242;51.694;10.006;2022-12-24T10:09:00;99132.00;;;9.20;86.63
66430;BME280;53242;51.694;10.006;2022-12-24T10:11:41;99141.28;;;9.16;86.94
66430;BME280;53242;51.694;10.006;2022-12-24T10:14:26;99135.44;;;9.21;86.94
66430;BME280;53242;51.694;10.006;2022-12-24T10:22:56;99164.97;;;9.16;87.50
66430;BME280;53242;51.694;10.006;2022-12-24T10:25:25;99154.72;;;9.28;87.28
66430;BME280;53242;51.694;10.006;2022-12-24T10:27:50;99161.84;;;9.34;86.83
66430;BME280;53242;51.694;10.006;2022-12-24T10:30:16;99163.91;;;9.39;86.71
66430;BME280;53242;51.694;10.006;2022-12-24T10:32:40;99158.88;;;9.44;86.42
66430;BME280;53242;51.694;10.006;2022-12-24T10:35:14;99159.50;;;9.53;86.42
66430;BME280;53242;51.694;10.006;2022-12-24T10:37:40;99162.97;;;9.53;86.42
66430;BME280;53242;51.694;10.006;2022-12-24T10:40:03;99165.94;;;9.44;86.49
66430;BME280;53242;51.694;10.006;2022-12-24T10:42:34;99168.59;;;9.50;86.15
66430;BME280;53242;51.694;10.006;2022-12-24T10:45:02;99172.88;;;9.51;86.27
66430;BME280;53242;51.694;10.006;2022-12-24T10:47:26;99179.13;;;9.50;86.45
66430;BME280;53242;51.694;10.006;2022-12-24T10:49:56;99185.00;;;9.46;86.75
66430;BME280;53242;51.694;10.006;2022-12-24T10:52:23;99179.53;;;9.47;87.09
66430;BME280;53242;51.694;10.006;2022-12-24T10:57:41;99192.38;;;9.64;86.76
66430;BME280;53242;51.694;10.006;2022-12-24T11:00:04;99185.53;;;9.76;86.80
66430;BME280;53242;51.694;10.006;2022-12-24T11:02:35;99193.66;;;9.81;86.62
66430;BME280;53242;51.694;10.006;2022-12-24T11:05:00;99196.91;;;9.77;86.58
66430;BME280;53242;51.694;10.006;2022-12-24T11:07:22;99192.66;;;9.82;86.30
66430;BME280;53242;51.694;10.006;2022-12-24T11:09:54;99199.44;;;9.98;86.04
66430;BME280;53242;51.694;10.006;2022-12-24T11:12:21;99200.84;;;10.01;85.93
66430;BME280;53242;51.694;10.006;2022-12-24T11:14:44;99201.50;;;10.16;85.44
66430;BME280;53242;51.694;10.006;2022-12-24T11:17:18;99195.19;;;10.17;85.11
66430;BME280;53242;51.694;10.006;2022-12-24T11:19:46;99190.34;;;10.14;85.35
66430;BME280;53242;51.694;10.006;2022-12-24T11:22:23;99187.69;;;10.08;85.24
66430;BME280;53242;51.694;10.006;2022-12-24T11:24:57;99190.91;;;10.03;85.00
66430;BME280;53242;51.694;10.006;2022-12-24T11:27:27;99203.28;;;10.02;85.30
66430;BME280;53242;51.694;10.006;2022-12-24T11:29:50;99189.66;;;9.92;85.70
66430;BME280;53242;51.694;10.006;2022-12-24T11:32:18;99203.28;;;9.96;85.00
66430;BME280;53242;51.694;10.006;2022-12-24T11:34:42;99190.31;;;10.01;84.98
66430;BME280;53242;51.694;10.006;2022-12-24T11:37:20;99208.13;;;9.99;84.77
66430;BME280;53242;51.694;10.006;2022-12-24T11:39:47;99204.88;;;9.97;84.53
66430;BME280;53242;51.694;10.006;2022-12-24T11:42:33;99205.72;;;10.04;84.29
66430;BME280;53242;51.694;10.006;2022-12-24T11:44:57;99209.16;;;9.98;84.71
66430;BME280;53242;51.694;10.006;2022-12-24T11:47:35;99200.22;;;9.99;84.49
66430;BME280;53242;51.694;10.006;2022-12-24T11:50:18;99197.03;;;10.10;84.01
66430;BME280;53242;51.694;10.006;2022-12-24T11:52:42;99195.41;;;10.09;84.44
66430;BME280;53242;51.694;10.006;2022-12-24T11:55:21;99198.25;;;10.14;84.09
66430;BME280;53242;51.694;10.006;2022-12-24T11:57:59;99194.19;;;10.18;83.85
66430;BME280;53242;51.694;10.006;2022-12-24T12:00:25;99187.13;;;10.32;83.53
66430;BME280;53242;51.694;10.006;2022-12-24T12:02:50;99189.97;;;10.31;83.51
66430;BME280;53242;51.694;10.006;2022-12-24T12:05:20;99194.84;;;10.34;83.33
66430;BME280;53242;51.694;10.006;2022-12-24T12:07:46;99196.47;;;10.35;83.55
66430;BME280;53242;51.694;10.006;2022-12-24T12:10:29;99192.25;;;10.41;82.67
66430;BME280;53242;51.694;10.006;2022-12-24T12:13:02;99184.94;;;10.36;82.58
66430;BME280;53242;51.694;10.006;2022-12-24T12:15:32;99196.47;;;10.35;82.51
66430;BME280;53242;51.694;10.006;2022-12-24T12:18:00;99198.47;;;10.33;82.46
66430;BME280;53242;51.694;10.006;2022-12-24T12:20:29;99203.16;;;10.31;82.43
66430;BME280;53242;51.694;10.006;2022-12-24T12:31:21;99215.81;;;10.42;80.43
66430;BME280;53242;51.694;10.006;2022-12-24T12:33:53;99207.28;;;10.53;80.06
66430;BME280;53242;51.694;10.006;2022-12-24T12:36:20;99210.13;;;10.52;80.11
66430;BME280;53242;51.694;10.006;2022-12-24T12:38:44;99214.38;;;10.53;80.19
66430;BME280;53242;51.694;10.006;2022-12-24T12:41:22;99221.47;;;10.46;80.03
66430;BME280;53242;51.694;10.006;2022-12-24T12:52:37;99221.88;;;10.43;78.97
66430;BME280;53242;51.694;10.006;2022-12-24T12:58:02;99240.16;;;10.44;78.67
66430;BME280;53242;51.694;10.006;2022-12-24T13:00:28;99229.97;;;10.34;78.68
66430;BME280;53242;51.694;10.006;2022-12-24T13:03:11;99232.19;;;10.31;79.15
66430;BME280;53242;51.694;10.006;2022-12-24T13:08:37;99228.97;;;10.35;78.68
66430;BME280;53242;51.694;10.006;2022-12-24T13:11:17;99230.59;;;10.36;78.51
66430;BME280;53242;51.694;10.006;2022-12-24T13:13:47;99238.50;;;10.36;78.77
66430;BME280;53242;51.694;10.006;2022-12-24T13:21:24;99258.81;;;10.43;78.47
66430;BME280;53242;51.694;10.006;2022-12-24T13:23:47;99260.81;;;10.41;79.41
66430;BME280;53242;51.694;10.006;2022-12-24T13:26:12;99257.34;;;10.33;78.47
66430;BME280;53242;51.694;10.006;2022-12-24T13:28:35;99263.47;;;10.41;78.91
66430;BME280;53242;51.694;10.006;2022-12-24T13:36:14;99268.56;;;10.42;78.00
66430;BME280;53242;51.694;10.006;2022-12-24T13:38:55;99271.22;;;10.42;77.84
66430;BME280;53242;51.694;10.006;2022-12-24T13:46:56;99290.81;;;10.33;77.38
66430;BME280;53242;51.694;10.006;2022-12-24T13:49:25;99288.56;;;10.30;77.42
66430;BME280;53242;51.694;10.006;2022-12-24T13:51:48;99282.44;;;10.23;77.44
66430;BME280;53242;51.694;10.006;2022-12-24T13:54:12;99288.94;;;10.20;77.57
66430;BME280;53242;51.694;10.006;2022-12-24T13:56:36;99295.88;;;10.28;77.38
66430;BME280;53242;51.694;10.006;2022-12-24T13:59:22;99299.09;;;10.16;77.49